createdAt,value
2018-07-15T00:00:04.086Z,99.90
2018-07-15T00:02:33.749Z,99.90
2018-07-15T00:05:03.474Z,99.20
2018-07-15T00:07:33.146Z,98.90
2018-07-15T00:10:02.811Z,99.80
2018-07-15T00:12:32.422Z,99.90
2018-07-15T00:15:02.114Z,99.90
2018-07-15T00:17:31.805Z,99.90
2018-07-15T00:20:01.534Z,99.90
2018-07-15T00:22:31.238Z,99.90
2018-07-15T00:25:00.887Z,99.90
2018-07-15T00:27:30.641Z,99.90
2018-07-15T00:30:00.285Z,99.90
2018-07-15T00:32:29.922Z,99.90
2018-07-15T00:34:59.587Z,99.90
2018-07-15T00:37:29.250Z,99.90
2018-07-15T00:39:58.877Z,99.90
2018-07-15T00:42:28.554Z,99.90
2018-07-15T00:44:58.261Z,99.90
2018-07-15T00:47:27.887Z,99.90
2018-07-15T00:49:57.826Z,99.90
2018-07-15T00:52:27.494Z,99.90
2018-07-15T00:54:57.103Z,99.90
2018-07-15T00:57:26.774Z,99.90
2018-07-15T00:59:56.740Z,99.90
2018-07-15T01:02:26.383Z,99.90
2018-07-15T01:04:56.015Z,99.90
2018-07-15T01:07:25.762Z,99.90
2018-07-15T01:09:55.383Z,99.90
2018-07-15T01:12:25.050Z,99.90
2018-07-15T01:14:54.761Z,99.90
2018-07-15T01:17:24.427Z,99.90
2018-07-15T01:19:54.105Z,99.90
2018-07-15T01:22:23.799Z,99.90
2018-07-15T01:24:53.578Z,99.90
2018-07-15T01:27:23.226Z,99.90
2018-07-15T01:29:52.961Z,99.90
2018-07-15T01:32:22.629Z,99.90
2018-07-15T01:34:52.260Z,99.90
2018-07-15T01:37:21.923Z,99.90
2018-07-15T01:39:51.566Z,99.90
2018-07-15T01:42:21.182Z,99.90
2018-07-15T01:44:50.898Z,99.90
2018-07-15T01:47:20.533Z,99.90
2018-07-15T01:49:50.233Z,99.90
2018-07-15T01:52:19.966Z,99.90
2018-07-15T01:54:49.586Z,99.90
2018-07-15T01:57:19.301Z,99.90
2018-07-15T01:59:48.941Z,99.90
2018-07-15T02:02:18.567Z,99.90
2018-07-15T02:04:48.215Z,99.90
2018-07-15T02:07:17.937Z,99.90
2018-07-15T02:09:47.606Z,99.90
2018-07-15T02:12:17.317Z,99.90
2018-07-15T02:14:46.967Z,99.90
2018-07-15T02:17:16.648Z,99.90
2018-07-15T02:19:46.333Z,99.90
2018-07-15T02:22:16.001Z,99.90
2018-07-15T02:24:45.710Z,99.90
2018-07-15T02:27:15.402Z,99.90
2018-07-15T02:29:45.083Z,99.90
2018-07-15T02:32:14.768Z,99.90
2018-07-15T02:34:44.592Z,99.90
2018-07-15T02:37:14.239Z,99.90
2018-07-15T02:39:44.160Z,99.90
2018-07-15T02:42:13.898Z,99.90
2018-07-15T02:44:43.576Z,99.90
2018-07-15T02:47:13.575Z,99.90
2018-07-15T02:49:43.192Z,99.90
2018-07-15T02:52:12.890Z,99.90
2018-07-15T02:54:42.660Z,99.90
2018-07-15T02:57:12.313Z,99.90
2018-07-15T02:59:41.919Z,99.90
2018-07-15T03:02:11.602Z,99.90
2018-07-15T03:04:41.282Z,99.90
2018-07-15T03:07:11.238Z,99.90
2018-07-15T03:09:40.863Z,99.90
2018-07-15T03:12:10.633Z,99.90
2018-07-15T03:14:40.313Z,99.90
2018-07-15T03:17:10.022Z,99.90
2018-07-15T03:19:39.621Z,99.90
2018-07-15T03:22:09.608Z,99.90
2018-07-15T03:24:39.261Z,99.90
2018-07-15T03:27:09.039Z,99.90
2018-07-15T03:29:38.643Z,99.90
2018-07-15T03:32:08.402Z,99.90
2018-07-15T03:34:38.218Z,99.90
2018-07-15T03:37:07.918Z,99.90
2018-07-15T03:39:37.606Z,99.90
2018-07-15T03:42:07.430Z,99.90
2018-07-15T03:44:37.126Z,99.90
2018-07-15T03:47:06.863Z,99.90
2018-07-15T03:52:33.704Z,99.90
2018-07-15T03:55:03.481Z,99.90
2018-07-15T03:57:33.116Z,99.90
2018-07-15T04:00:02.774Z,99.90
2018-07-15T04:02:32.497Z,99.90
2018-07-15T04:05:02.162Z,99.90
2018-07-15T04:07:31.869Z,99.90
2018-07-15T04:10:01.546Z,99.90
2018-07-15T04:12:31.274Z,99.90
2018-07-15T04:15:00.963Z,99.90
2018-07-15T04:17:30.637Z,99.90
2018-07-15T04:20:00.347Z,99.90
2018-07-15T04:22:30.014Z,99.90
2018-07-15T04:24:59.692Z,99.90
2018-07-15T04:27:29.357Z,99.90
2018-07-15T04:29:59.072Z,99.90
2018-07-15T04:32:28.709Z,99.90
2018-07-15T04:34:58.369Z,99.90
2018-07-15T04:37:28.032Z,99.90
2018-07-15T04:39:58.125Z,99.90
2018-07-15T04:42:27.887Z,99.90
2018-07-15T04:44:57.558Z,99.90
2018-07-15T04:47:27.226Z,99.90
2018-07-15T04:49:56.933Z,99.90
2018-07-15T04:52:26.590Z,99.90
2018-07-15T04:54:56.301Z,99.90
2018-07-15T04:57:25.943Z,99.90
2018-07-15T04:59:55.954Z,99.90
2018-07-15T05:02:25.607Z,99.90
2018-07-15T05:04:55.312Z,99.90
2018-07-15T05:07:24.934Z,99.90
2018-07-15T05:09:54.606Z,99.90
2018-07-15T05:12:24.417Z,99.90
2018-07-15T05:14:54.150Z,99.90
2018-07-15T05:17:23.844Z,99.90
2018-07-15T05:19:54.497Z,99.90
2018-07-15T05:22:24.149Z,99.90
2018-07-15T05:24:53.881Z,99.90
2018-07-15T05:27:23.530Z,99.90
2018-07-15T05:29:53.261Z,99.90
2018-07-15T05:32:22.890Z,99.90
2018-07-15T05:34:52.637Z,99.90
2018-07-15T05:37:22.302Z,99.90
2018-07-15T05:39:52.013Z,99.90
2018-07-15T05:42:21.774Z,99.90
2018-07-15T05:44:51.430Z,99.90
2018-07-15T05:47:21.142Z,99.90
2018-07-15T05:49:50.839Z,99.90
2018-07-15T05:52:20.454Z,99.90
2018-07-15T05:54:50.133Z,99.90
2018-07-15T05:57:19.768Z,99.90
2018-07-15T05:59:49.434Z,99.90
2018-07-15T06:02:19.098Z,99.90
2018-07-15T06:04:48.728Z,99.90
2018-07-15T06:07:18.385Z,99.90
2018-07-15T06:09:48.051Z,99.90
2018-07-15T06:12:17.706Z,99.90
2018-07-15T06:14:47.401Z,99.90
2018-07-15T06:17:17.080Z,99.90
2018-07-15T06:19:46.731Z,99.90
2018-07-15T06:22:45.849Z,99.90
2018-07-15T06:25:15.526Z,99.90
2018-07-15T06:27:45.222Z,99.90
2018-07-15T06:30:14.969Z,99.90
2018-07-15T06:32:44.709Z,99.90
2018-07-15T06:35:14.478Z,99.90
2018-07-15T06:37:44.214Z,99.90
2018-07-15T06:40:13.974Z,99.90
2018-07-15T06:42:43.645Z,99.90
2018-07-15T06:45:13.366Z,99.90
2018-07-15T06:47:43.069Z,99.90
2018-07-15T06:50:12.754Z,99.90
2018-07-15T06:52:42.438Z,99.90
2018-07-15T06:55:12.121Z,99.90
2018-07-15T06:57:41.755Z,99.90
2018-07-15T07:00:11.412Z,99.90
2018-07-15T07:02:41.072Z,99.90
2018-07-15T07:05:10.762Z,99.90
2018-07-15T07:07:40.547Z,99.90
2018-07-15T07:10:10.272Z,99.90
2018-07-15T07:12:39.947Z,99.90
2018-07-15T07:15:09.666Z,99.90
2018-07-15T07:17:39.314Z,99.90
2018-07-15T07:20:09.029Z,99.90
2018-07-15T07:22:38.644Z,99.90
2018-07-15T07:25:08.322Z,99.90
2018-07-15T07:27:38.011Z,99.90
2018-07-15T07:30:07.743Z,99.90
2018-07-15T07:32:37.598Z,99.90
2018-07-15T07:35:07.625Z,99.90
2018-07-15T07:37:37.520Z,99.90
2018-07-15T07:40:07.201Z,99.90
2018-07-15T07:42:36.843Z,99.90
2018-07-15T07:45:06.532Z,99.90
2018-07-15T07:47:36.176Z,99.90
2018-07-15T07:50:06.206Z,99.90
2018-07-15T07:52:35.849Z,99.90
2018-07-15T07:55:05.547Z,99.90
2018-07-15T07:57:35.220Z,99.90
2018-07-15T08:00:04.987Z,98.80
2018-07-15T08:02:34.679Z,99.20
2018-07-15T08:05:04.382Z,99.10
2018-07-15T08:07:34.043Z,98.90
2018-07-15T08:10:03.804Z,98.70
2018-07-15T08:12:33.548Z,97.40
2018-07-15T08:15:03.241Z,97.40
2018-07-15T08:17:32.883Z,97.30
2018-07-15T08:20:02.546Z,98.10
2018-07-15T08:22:32.172Z,97.20
2018-07-15T08:25:02.861Z,96.60
2018-07-15T08:27:32.945Z,95.80
2018-07-15T08:30:19.165Z,96.30
2018-07-15T08:32:49.138Z,95.80
2018-07-15T08:35:18.751Z,96.10
2018-07-15T08:37:48.369Z,95.90
2018-07-15T08:40:17.941Z,96.00
2018-07-15T08:42:47.561Z,94.50
2018-07-15T08:45:17.203Z,93.80
2018-07-15T08:47:46.807Z,93.50
2018-07-15T08:50:16.413Z,92.50
2018-07-15T08:52:46.051Z,94.10
2018-07-15T08:55:15.650Z,93.30
2018-07-15T08:57:45.334Z,93.40
2018-07-15T09:00:15.026Z,92.20
2018-07-15T09:02:44.718Z,92.00
2018-07-15T09:05:14.321Z,92.10
2018-07-15T09:07:43.979Z,91.80
2018-07-15T09:10:13.662Z,92.00
2018-07-15T09:12:43.297Z,91.10
2018-07-15T09:15:12.918Z,91.40
2018-07-15T09:17:42.674Z,90.80
2018-07-15T09:20:12.298Z,91.30
2018-07-15T09:22:42.514Z,89.40
2018-07-15T09:25:12.181Z,90.40
2018-07-15T09:27:42.214Z,88.00
2018-07-15T09:30:12.216Z,90.00
2018-07-15T09:32:49.155Z,87.90
2018-07-15T09:35:19.268Z,86.90
2018-07-15T09:37:49.045Z,90.20
2018-07-15T09:40:18.802Z,87.70
2018-07-15T09:42:48.471Z,87.60
2018-07-15T09:45:18.667Z,86.90
2018-07-15T09:47:48.430Z,87.60
2018-07-15T09:50:18.147Z,86.30
2018-07-15T09:52:47.909Z,86.90
2018-07-15T09:55:17.797Z,87.00
2018-07-15T09:57:48.597Z,86.20
2018-07-15T10:00:23.289Z,85.60
2018-07-15T10:02:52.909Z,84.10
2018-07-15T10:05:22.579Z,85.80
2018-07-15T10:07:52.222Z,85.20
2018-07-15T10:10:22.054Z,84.10
2018-07-15T10:12:51.709Z,84.70
2018-07-15T10:15:21.329Z,83.50
2018-07-15T10:17:50.945Z,83.50
2018-07-15T10:20:20.585Z,80.60
2018-07-15T10:22:50.250Z,80.00
2018-07-15T10:25:19.879Z,80.40
2018-07-15T10:27:49.619Z,80.60
2018-07-15T10:30:19.265Z,80.30
2018-07-15T10:32:48.913Z,82.50
2018-07-15T10:35:18.513Z,80.40
2018-07-15T10:37:48.255Z,78.70
2018-07-15T10:40:17.913Z,79.90
2018-07-15T10:42:47.610Z,80.10
2018-07-15T10:45:17.300Z,79.60
2018-07-15T10:47:47.012Z,77.40
2018-07-15T10:50:16.615Z,77.80
2018-07-15T10:52:46.394Z,77.40
2018-07-15T10:55:15.929Z,77.30
2018-07-15T10:57:45.580Z,77.40
2018-07-15T11:00:15.302Z,78.70
2018-07-15T11:02:45.094Z,77.80
2018-07-15T11:05:14.733Z,76.90
2018-07-15T11:07:45.617Z,72.20
2018-07-15T11:10:15.295Z,73.40
2018-07-15T11:12:45.007Z,71.40
2018-07-15T11:15:15.685Z,73.80
2018-07-15T11:17:46.337Z,73.90
2018-07-15T11:20:17.054Z,75.30
2018-07-15T11:22:46.699Z,72.20
2018-07-15T11:25:23.680Z,71.80
2018-07-15T11:27:53.376Z,73.20
2018-07-15T11:30:23.066Z,73.40
2018-07-15T11:32:53.069Z,73.60
2018-07-15T11:35:22.791Z,72.70
2018-07-15T11:37:52.413Z,71.60
2018-07-15T11:40:22.137Z,69.00
2018-07-15T11:42:51.738Z,70.60
2018-07-15T11:45:21.379Z,67.80
2018-07-15T11:47:51.145Z,71.90
2018-07-15T11:50:20.783Z,69.90
2018-07-15T11:52:51.433Z,72.40
2018-07-15T11:55:21.097Z,72.60
2018-07-15T11:57:50.703Z,72.40
2018-07-15T12:00:20.376Z,68.00
2018-07-15T12:02:50.024Z,69.90
2018-07-15T12:05:23.258Z,67.40
2018-07-15T12:07:52.902Z,69.60
2018-07-15T12:10:22.526Z,68.20
2018-07-15T12:12:52.165Z,67.90
2018-07-15T12:15:21.806Z,65.70
2018-07-15T12:17:51.440Z,70.00
2018-07-15T12:20:21.156Z,68.80
2018-07-15T12:22:50.729Z,68.00
2018-07-15T12:25:20.382Z,68.00
2018-07-15T12:27:50.114Z,68.30
2018-07-15T12:30:19.758Z,67.80
2018-07-15T12:32:50.426Z,66.60
2018-07-15T12:35:20.059Z,64.90
2018-07-15T12:37:49.726Z,63.50
2018-07-15T12:40:19.346Z,64.30
2018-07-15T12:42:48.998Z,64.00
2018-07-15T12:45:18.642Z,63.90
2018-07-15T12:47:52.349Z,64.10
2018-07-15T12:50:22.222Z,61.90
2018-07-15T12:52:52.358Z,64.30
2018-07-15T12:55:22.050Z,62.10
2018-07-15T12:57:51.711Z,62.00
2018-07-15T13:00:21.494Z,62.10
2018-07-15T13:02:51.142Z,61.00
2018-07-15T13:05:20.806Z,60.90
2018-07-15T13:07:50.438Z,60.50
2018-07-15T13:10:20.138Z,62.00
2018-07-15T13:12:49.801Z,61.80
2018-07-15T13:15:19.693Z,60.60
2018-07-15T13:17:49.343Z,60.10
2018-07-15T13:20:19.342Z,58.00
2018-07-15T13:22:49.005Z,60.50
2018-07-15T13:25:18.693Z,58.20
2018-07-15T13:27:48.394Z,59.90
2018-07-15T13:30:18.047Z,60.00
2018-07-15T13:32:47.725Z,59.80
2018-07-15T13:35:17.342Z,60.80
2018-07-15T13:37:50.286Z,58.90
2018-07-15T13:40:19.930Z,57.80
2018-07-15T13:42:54.630Z,57.40
2018-07-15T13:45:24.278Z,58.50
2018-07-15T13:47:53.992Z,58.30
2018-07-15T13:50:23.646Z,57.80
2018-07-15T13:52:53.631Z,57.20
2018-07-15T13:55:23.366Z,58.70
2018-07-15T13:57:53.078Z,58.40
2018-07-15T14:00:22.756Z,58.70
2018-07-15T14:02:52.391Z,56.50
2018-07-15T14:05:22.060Z,57.00
2018-07-15T14:07:51.749Z,58.00
2018-07-15T14:10:21.401Z,56.60
2018-07-15T14:12:51.160Z,57.60
2018-07-15T14:15:20.974Z,57.60
2018-07-15T14:17:50.737Z,56.10
2018-07-15T14:20:20.354Z,57.10
2018-07-15T14:22:51.771Z,57.00
2018-07-15T14:25:23.993Z,55.90
2018-07-15T14:27:53.641Z,56.70
2018-07-15T14:30:23.348Z,55.60
2018-07-15T14:32:52.969Z,56.80
2018-07-15T14:35:22.714Z,55.50
2018-07-15T14:37:52.531Z,55.90
2018-07-15T14:40:22.160Z,57.20
2018-07-15T14:42:51.802Z,56.60
2018-07-15T14:45:21.411Z,57.40
2018-07-15T14:47:51.078Z,57.30
2018-07-15T14:50:20.706Z,56.30
2018-07-15T14:52:50.402Z,55.80
2018-07-15T14:55:20.109Z,56.20
2018-07-15T14:57:49.762Z,54.20
2018-07-15T15:00:19.449Z,56.00
2018-07-15T15:02:49.102Z,55.60
2018-07-15T15:05:18.754Z,54.00
2018-07-15T15:07:48.373Z,54.10
2018-07-15T15:10:18.010Z,53.80
2018-07-15T15:12:47.613Z,53.70
2018-07-15T15:15:17.253Z,54.30
2018-07-15T15:17:46.858Z,54.00
2018-07-15T15:20:16.483Z,52.90
2018-07-15T15:22:46.119Z,52.00
2018-07-15T15:25:15.763Z,52.90
2018-07-15T15:27:46.697Z,51.20
2018-07-15T15:30:18.369Z,52.00
2018-07-15T15:32:48.047Z,51.40
2018-07-15T15:35:17.695Z,51.10
2018-07-15T15:37:47.349Z,51.10
2018-07-15T15:40:17.662Z,52.10
2018-07-15T15:42:47.334Z,51.70
2018-07-15T15:45:16.957Z,50.80
2018-07-15T15:47:46.605Z,51.50
2018-07-15T15:50:18.459Z,52.80
2018-07-15T15:52:48.246Z,51.10
2018-07-15T15:55:17.903Z,51.10
2018-07-15T15:57:47.587Z,50.80
2018-07-15T16:00:17.224Z,50.70
2018-07-15T16:02:46.860Z,50.70
2018-07-15T16:05:16.498Z,51.40
2018-07-15T16:07:46.151Z,52.10
2018-07-15T16:10:15.806Z,51.00
2018-07-15T16:12:45.505Z,50.70
2018-07-15T16:15:15.162Z,50.40
2018-07-15T16:17:44.846Z,50.50
2018-07-15T16:20:14.454Z,50.80
2018-07-15T16:22:44.258Z,51.70
2018-07-15T16:25:14.177Z,50.50
2018-07-15T16:27:43.963Z,50.10
2018-07-15T16:30:13.667Z,50.70
2018-07-15T16:32:43.302Z,51.50
2018-07-15T16:35:12.942Z,51.70
2018-07-15T16:37:42.593Z,50.90
2018-07-15T16:40:12.288Z,51.10
2018-07-15T16:42:41.913Z,51.70
2018-07-15T16:45:11.571Z,52.10
2018-07-15T16:47:43.278Z,51.80
2018-07-15T16:50:12.925Z,51.40
2018-07-15T16:52:42.554Z,51.20
2018-07-15T16:55:12.190Z,51.40
2018-07-15T16:57:41.862Z,51.70
2018-07-15T17:00:11.590Z,51.40
2018-07-15T17:02:41.265Z,52.30
2018-07-15T17:05:10.886Z,51.10
2018-07-15T17:07:40.572Z,51.40
2018-07-15T17:10:10.235Z,52.10
2018-07-15T17:12:39.898Z,50.70
2018-07-15T17:15:09.541Z,51.80
2018-07-15T17:17:39.228Z,52.30
2018-07-15T17:20:08.937Z,51.60
2018-07-15T17:22:38.525Z,51.00
2018-07-15T17:25:08.205Z,52.20
2018-07-15T17:27:37.856Z,51.50
2018-07-15T17:30:07.534Z,51.50
2018-07-15T17:32:37.131Z,51.00
2018-07-15T17:35:06.854Z,52.20
2018-07-15T17:37:37.455Z,52.10
2018-07-15T17:40:07.184Z,51.50
2018-07-15T17:42:36.786Z,52.70
2018-07-15T17:45:06.527Z,52.40
2018-07-15T17:47:36.166Z,53.20
2018-07-15T17:50:05.881Z,52.90
2018-07-15T17:52:36.559Z,53.30
2018-07-15T17:55:06.335Z,52.70
2018-07-15T17:57:36.089Z,53.50
2018-07-15T18:00:05.814Z,53.70
2018-07-15T18:02:35.472Z,54.00
2018-07-15T18:05:05.213Z,55.00
2018-07-15T18:07:34.834Z,54.70
2018-07-15T18:10:04.467Z,55.40
2018-07-15T18:12:34.117Z,55.60
2018-07-15T18:15:03.882Z,55.20
2018-07-15T18:17:33.513Z,55.70
2018-07-15T18:20:03.178Z,56.40
2018-07-15T18:22:32.814Z,56.20
2018-07-15T18:25:02.443Z,56.70
2018-07-15T18:27:32.099Z,56.60
2018-07-15T18:30:01.754Z,56.70
2018-07-15T18:32:31.402Z,57.40
2018-07-15T18:35:01.055Z,58.00
2018-07-15T18:37:30.694Z,57.80
2018-07-15T18:40:00.370Z,58.10
2018-07-15T18:42:30.034Z,58.90
2018-07-15T18:45:00.802Z,58.90
2018-07-15T18:47:30.395Z,58.70
2018-07-15T18:50:00.055Z,59.40
2018-07-15T18:52:30.043Z,59.80
2018-07-15T18:55:00.759Z,59.40
2018-07-15T18:57:31.502Z,59.80
2018-07-15T19:00:01.160Z,60.90
2018-07-15T19:02:31.899Z,59.60
2018-07-15T19:05:01.537Z,59.10
2018-07-15T19:07:31.199Z,60.00
2018-07-15T19:10:01.922Z,61.40
2018-07-15T19:12:31.756Z,60.80
2018-07-15T19:15:01.400Z,61.90
2018-07-15T19:17:31.013Z,61.00
2018-07-15T19:20:00.765Z,61.60
2018-07-15T19:22:30.442Z,62.80
2018-07-15T19:25:00.597Z,61.00
2018-07-15T19:27:30.586Z,61.50
2018-07-15T19:30:00.223Z,63.00
2018-07-15T19:32:29.863Z,63.40
2018-07-15T19:34:59.539Z,62.80
2018-07-15T19:37:29.198Z,63.50
2018-07-15T19:39:58.953Z,61.80
2018-07-15T19:42:28.603Z,63.40
2018-07-15T19:44:58.320Z,63.00
2018-07-15T19:47:27.971Z,63.80
2018-07-15T19:49:57.590Z,64.00
2018-07-15T19:52:27.341Z,64.20
2018-07-15T19:54:57.062Z,64.00
2018-07-15T19:57:26.690Z,64.90
2018-07-15T19:59:56.301Z,65.00
2018-07-15T20:02:26.049Z,65.70
2018-07-15T20:04:56.604Z,65.80
2018-07-15T20:07:26.289Z,65.80
2018-07-15T20:09:56.007Z,66.90
2018-07-15T20:12:25.682Z,67.70
2018-07-15T20:14:55.391Z,68.60
2018-07-15T20:17:25.126Z,69.10
2018-07-15T20:19:55.514Z,69.40
2018-07-15T20:22:25.082Z,70.20
2018-07-15T20:24:54.958Z,70.10
2018-07-15T20:27:24.625Z,70.30
2018-07-15T20:29:54.262Z,70.10
2018-07-15T20:32:23.901Z,70.00
2018-07-15T20:34:53.570Z,70.30
2018-07-15T20:37:23.205Z,70.40
2018-07-15T20:39:52.841Z,70.10
2018-07-15T20:42:22.523Z,70.80
2018-07-15T20:44:52.206Z,71.70
2018-07-15T20:47:21.901Z,71.70
2018-07-15T20:49:51.606Z,72.40
2018-07-15T20:52:22.367Z,74.20
2018-07-15T20:54:53.114Z,74.50
2018-07-15T20:57:23.071Z,74.60
2018-07-15T20:59:52.908Z,75.50
2018-07-15T21:02:22.730Z,77.20
2018-07-15T21:04:52.597Z,79.30
2018-07-15T21:07:22.614Z,79.00
2018-07-15T21:09:52.513Z,79.40
2018-07-15T21:12:22.199Z,78.10
2018-07-15T21:14:51.901Z,78.40
2018-07-15T21:17:21.519Z,77.70
2018-07-15T21:19:51.151Z,76.70
2018-07-15T21:22:20.777Z,76.50
2018-07-15T21:24:50.421Z,77.60
2018-07-15T21:27:20.042Z,78.40
2018-07-15T21:29:49.706Z,80.70
2018-07-15T21:32:19.358Z,82.00
2018-07-15T21:34:48.991Z,83.20
2018-07-15T21:37:18.741Z,84.40
2018-07-15T21:39:48.602Z,85.30
2018-07-15T21:42:18.306Z,85.90
2018-07-15T21:44:47.969Z,87.40
2018-07-15T21:47:18.042Z,87.60
2018-07-15T21:49:47.681Z,88.60
2018-07-15T21:52:17.526Z,85.10
2018-07-15T21:54:47.183Z,83.40
2018-07-15T21:57:17.288Z,82.60
2018-07-15T21:59:47.210Z,82.00
2018-07-15T22:02:18.863Z,84.10
2018-07-15T22:04:48.663Z,85.90
2018-07-15T22:07:40.340Z,85.90
2018-07-15T22:10:21.901Z,87.60
2018-07-15T22:12:51.609Z,89.60
2018-07-15T22:15:21.540Z,90.50
2018-07-15T22:17:51.165Z,90.50
2018-07-15T22:20:21.902Z,89.80
2018-07-15T22:22:51.557Z,90.40
2018-07-15T22:25:21.224Z,90.70
2018-07-15T22:27:50.885Z,91.40
2018-07-15T22:30:20.549Z,91.80
2018-07-15T22:32:50.499Z,91.90
2018-07-15T22:35:20.097Z,92.60
2018-07-15T22:37:49.783Z,92.70
2018-07-15T22:40:19.434Z,93.20
2018-07-15T22:42:49.133Z,93.80
2018-07-15T22:45:18.827Z,92.80
2018-07-15T22:47:48.579Z,91.70
2018-07-15T22:50:18.233Z,90.50
2018-07-15T22:52:47.850Z,91.90
2018-07-15T22:55:17.499Z,93.00
2018-07-15T22:57:48.137Z,94.00
2018-07-15T23:00:17.805Z,94.20
2018-07-15T23:02:48.659Z,93.30
2018-07-15T23:05:51.893Z,92.00
2018-07-15T23:08:22.154Z,91.50
2018-07-15T23:10:51.886Z,91.90
2018-07-15T23:13:21.660Z,92.30
2018-07-15T23:15:51.567Z,92.50
2018-07-15T23:18:21.437Z,91.70
2018-07-15T23:20:51.717Z,91.10
2018-07-15T23:23:21.369Z,90.80
2018-07-15T23:25:51.025Z,92.30
2018-07-15T23:28:20.634Z,94.10
2018-07-15T23:30:50.251Z,95.00
2018-07-15T23:33:19.910Z,95.60
2018-07-15T23:35:49.558Z,95.90
2018-07-15T23:38:19.196Z,96.50
2018-07-15T23:40:48.845Z,97.40
